sensor_id;sensor_type;location;lat;lon;timestamp;pressure;altitude;pressure_sealevel;temperature;humidity
64343;BME280;50675;53.530;-6.312;2024-01-30T09:22:58;102372.16;;;3.84;68.96
64343;BME280;50675;53.530;-6.312;2024-01-30T11:59:21;102439.78;;;6.42;70.86
64343;BME280;50675;53.530;-6.312;2024-01-30T12:02:20;102420.34;;;6.40;70.97
64343;BME280;50675;53.530;-6.312;2024-01-30T12:09:24;102414.38;;;6.52;70.90
64343;BME280;50675;53.530;-6.312;2024-01-30T12:11:55;102400.91;;;6.38;70.84
64343;BME280;50675;53.530;-6.312;2024-01-30T12:14:50;102404.53;;;6.68;71.04
64343;BME280;50675;53.530;-6.312;2024-01-30T12:17:45;102401.72;;;6.61;70.83
64343;BME280;50675;53.530;-6.312;2024-01-30T13:54:48;102397.38;;;7.79;71.48
64343;BME280;50675;53.530;-6.312;2024-01-30T14:01:14;102401.63;;;7.88;71.25
64343;BME280;50675;53.530;-6.312;2024-01-30T14:03:40;102408.88;;;7.87;71.60
64343;BME280;50675;53.530;-6.312;2024-01-30T14:25:16;102395.03;;;7.76;71.32
64343;BME280;50675;53.530;-6.312;2024-01-30T14:27:42;102399.25;;;7.64;71.48
64343;BME280;50675;53.530;-6.312;2024-01-30T14:30:11;102407.09;;;7.65;71.18
64343;BME280;50675;53.530;-6.312;2024-01-30T14:32:36;102405.25;;;7.66;71.56
64343;BME280;50675;53.530;-6.312;2024-01-30T14:35:04;102390.44;;;7.55;71.26
64343;BME280;50675;53.530;-6.312;2024-01-30T14:37:30;102403.13;;;7.76;71.45
64343;BME280;50675;53.530;-6.312;2024-01-30T14:39:56;102413.53;;;7.79;71.57
64343;BME280;50675;53.530;-6.312;2024-01-30T14:42:22;102397.09;;;7.88;71.43
64343;BME280;50675;53.530;-6.312;2024-01-30T14:44:47;102404.13;;;7.75;71.53
64343;BME280;50675;53.530;-6.312;2024-01-30T14:47:14;102390.31;;;7.78;71.22
64343;BME280;50675;53.530;-6.312;2024-01-30T14:49:40;102401.25;;;7.76;71.55
64343;BME280;50675;53.530;-6.312;2024-01-30T14:52:06;102403.13;;;7.76;71.50
64343;BME280;50675;53.530;-6.312;2024-01-30T14:54:31;102387.34;;;7.87;71.34
64343;BME280;50675;53.530;-6.312;2024-01-30T14:56:57;102401.41;;;7.89;71.31
64343;BME280;50675;53.530;-6.312;2024-01-30T14:59:25;102395.56;;;8.01;71.67
64343;BME280;50675;53.530;-6.312;2024-01-30T15:01:50;102397.56;;;7.77;71.36
64343;BME280;50675;53.530;-6.312;2024-01-30T15:04:16;102389.75;;;7.82;71.62
64343;BME280;50675;53.530;-6.312;2024-01-30T15:06:42;102395.69;;;7.78;71.60
64343;BME280;50675;53.530;-6.312;2024-01-30T15:09:14;102395.97;;;7.83;71.65
64343;BME280;50675;53.530;-6.312;2024-01-30T15:11:41;102390.09;;;7.94;71.51
64343;BME280;50675;53.530;-6.312;2024-01-30T15:14:07;102383.13;;;8.00;71.88
64343;BME280;50675;53.530;-6.312;2024-01-30T15:16:32;102394.28;;;7.97;71.45
64343;BME280;50675;53.530;-6.312;2024-01-30T15:18:58;102383.25;;;7.91;71.39
64343;BME280;50675;53.530;-6.312;2024-01-30T15:21:23;102369.44;;;7.80;71.63
64343;BME280;50675;53.530;-6.312;2024-01-30T15:23:49;102375.44;;;7.97;71.65
64343;BME280;50675;53.530;-6.312;2024-01-30T17:26:44;102475.78;;;6.25;71.19
64343;BME280;50675;53.530;-6.312;2024-01-30T20:17:07;102508.41;;;6.05;70.43
64343;BME280;50675;53.530;-6.312;2024-01-30T20:24:19;102491.09;;;6.16;70.40
64343;BME280;50675;53.530;-6.312;2024-01-30T20:31:13;102477.16;;;6.21;70.71
64343;BME280;50675;53.530;-6.312;2024-01-30T20:34:35;102496.56;;;6.31;70.35
64343;BME280;50675;53.530;-6.312;2024-01-30T21:02:44;102467.72;;;5.78;70.45
64343;BME280;50675;53.530;-6.312;2024-01-30T21:05:30;102470.75;;;5.75;70.28
